Leadore, Idaho
Current Conditions -  °F | °C
As of 10:55 PM on Tuesday 21 Oct 2014 (Local Time) from KLLJ Reporting Station
Overcast Overcast  
Wind Chill: 38°   Ceiling: 6000
Heat Index: 38°   Visibility: 10mi
Dew Point: 35°   Wind: 3mph
Humidity: 89%   Direction: 310°NW
Pressure: 30.1"   Gusts: NA
Location:  44.68°N, 113.36°W
Report Text: KLLJ 220455Z AUTO 31003KT 10SM OVC060 03/02 A3010 RMK AO2 SLP184 T00330017
Loading
Personal Weather Stations






























Interactive Weather Map
Tropical Storm Tracking
New forecast layout! Learn more

10-Day Weather Forecast

Advertisements
Track Severe Weather on mobile